Stations météo

réclame
Mon MeteoGroup
Stabroek, Belgique (6438): Température de l'air & dewpoint: 15.09.2018 10:00:00 - 21.09.2018 10:00:00 (CEST)Stabroek, Belgique (6438): Vitesse du vent & gusts: 15.09.2018 10:00:00 - 21.09.2018 10:00:00 (CEST)Stabroek, Belgique (6438): Direction du vent: 15.09.2018 10:00:00 - 21.09.2018 10:00:00 (CEST)Stabroek, Belgique (6438): reduced air pressure: 15.09.2018 10:00:00 - 21.09.2018 10:00:00 (CEST)Stabroek, Belgique (6438): Ensoleillement: 15.09.2018 10:00:00 - 21.09.2018 10:00:00 (CEST)Stabroek, Belgique (6438): Quantités de précipitations: 15.09.2018 10:00:00 - 21.09.2018 10:00:00 (CEST)
Date & Time tt [°C] td [°C] ff [km/h] ff [knt] fx [km/h] fx [knt] dd ppp [hPa] sd [min] rr [mm]
21.09.2018 10:00:00 15,6 11,4 33 18 55 30 WSW 1005,4 17 0,0
21.09.2018 09:00:00 15,2 13,3 32 17 67 36 WSW 1004,4 0 2,9
21.09.2018 08:00:00 16,9 16,4 32 18 57 31 SSW 1002,7 0 2,6
21.09.2018 07:00:00 18,6 14,8 30 16 60 32 SSW 1002,3 0 0,1
21.09.2018 06:00:00 19,6 13,7 37 20 54 29 S 1002,7 0 0,0
21.09.2018 05:00:00 19,9 13,7 32 17 51 28 S 1003,3 0 0,0
21.09.2018 04:00:00 20,4 14,0 27 14 54 29 S 1004,4 0 0,0
21.09.2018 03:00:00 21,4 13,9 37 20 53 28 SSW 1005,9 0 0,1
21.09.2018 02:00:00 21,6 13,8 32 18 53 29 SSW 1006,8 0 0,0
21.09.2018 01:00:00 21,6 13,7 31 17 44 24 SSW 1007,8 0 0,0
21.09.2018 00:00:00 21,4 13,7 23 13 39 21 S 1008,5 0 0,0
20.09.2018 23:00:00 21,6 13,4 23 13 41 22 S 1009,2 0 0,0
20.09.2018 22:00:00 22,1 13,4 24 13 36 19 S 1010,2 0 0,0
20.09.2018 21:00:00 22,5 13,4 19 10 40 21 S 1011,0 0 0,0
20.09.2018 20:00:00 22,9 13,5 18 10 33 18 S 1011,6 0 0,0
20.09.2018 19:00:00 23,1 13,2 16 8 40 22 SSW 1012,2 0 0,0
20.09.2018 18:00:00 24,2 13,1 22 12 41 22 S 1012,9 58 0,0
20.09.2018 17:00:00 24,7 12,4 27 15 39 21 S 1013,5 60 0,0
20.09.2018 16:00:00 24,4 12,5 27 15 41 22 SSW 1014,5 60 0,0
20.09.2018 15:00:00 23,8 13,6 25 13 40 22 SSW 1015,3 60 0,0
20.09.2018 14:00:00 23,3 14,0 25 14 40 22 SSW 1015,9 60 0,0
20.09.2018 13:00:00 22,1 14,6 22 12 37 20 SSW 1016,5 60 0,0
20.09.2018 12:00:00 20,9 14,9 22 12 34 18 SSW 1016,8 60 0,0
20.09.2018 11:00:00 19,5 14,9 18 10 31 17 SSW 1017,0 60 0,0
20.09.2018 10:00:00 18,4 14,7 21 11 33 18 SSW 1017,0 60 0,0
20.09.2018 09:00:00 17,0 14,1 18 10 28 15 SSW 1017,1 51 0,0
20.09.2018 08:00:00 16,7 13,7 18 10 29 15 SSW 1016,8 0 0,0
20.09.2018 07:00:00 16,7 13,6 16 8 23 12 SSW 1016,9 0 0,0
20.09.2018 06:00:00 16,9 13,7 11 6 23 13 S 1017,0 0 0,0
20.09.2018 05:00:00 16,8 14,2 9 5 13 7 S 1017,4 0 0,0
20.09.2018 04:00:00 17,0 13,7 8 4 16 9 S 1017,2 0 0,0
20.09.2018 03:00:00 17,1 13,7 8 5 16 9 SSW 1017,3 0 0,0
20.09.2018 02:00:00 18,3 13,7 11 6 19 10 SSW 1017,4 0 0,0
20.09.2018 01:00:00 19,4 13,9 13 7 26 14 SW 1017,7 0 0,0
20.09.2018 00:00:00 20,5 14,0 18 10 30 16 SSW 1018,0 0 0,0
19.09.2018 23:00:00 20,5 14,0 16 9 27 15 SSW 1018,1 0 0,0
19.09.2018 22:00:00 21,2 13,9 18 10 31 17 SSW 1017,8 0 0,0
19.09.2018 21:00:00 21,6 13,7 15 8 23 12 SSW 1017,6 0 0,0
19.09.2018 20:00:00 22,2 13,6 18 10 34 19 SSW 1017,4 0 0,0
19.09.2018 19:00:00 23,1 13,4 23 13 41 22 SW 1017,1 2 0,0
19.09.2018 18:00:00 23,8 13,1 28 15 46 25 SSW 1017,1 58 0,0
19.09.2018 17:00:00 24,5 12,9 27 15 44 24 SW 1017,0 60 0,0
19.09.2018 16:00:00 24,6 12,5 29 16 50 27 SW 1016,8 55 0,0
19.09.2018 15:00:00 24,0 12,5 28 15 45 24 SSW 1016,8 57 0,0
19.09.2018 14:00:00 23,2 12,3 29 16 50 27 SSW 1017,0 55 0,0
19.09.2018 13:00:00 22,8 13,5 26 14 40 21 SSW 1017,2 57 0,0
19.09.2018 12:00:00 21,3 14,3 22 12 36 19 SW 1017,4 51 0,0
19.09.2018 11:00:00 20,4 15,3 20 11 29 15 SSW 1017,0 60 0,0
19.09.2018 10:00:00 18,9 15,4 19 10 30 16 SSW 1016,6 60 0,0
19.09.2018 09:00:00 17,8 15,2 22 12 36 19 SSW 1016,4 48 0,0
19.09.2018 08:00:00 17,2 15,3 14 8 27 14 S 1015,9 0 0,0
19.09.2018 07:00:00 16,9 15,1 13 7 17 9 S 1015,6 0 0,0
19.09.2018 06:00:00 15,2 13,7 8 4 12 7 SE 1015,8 0 0,0
19.09.2018 05:00:00 15,1 13,5 8 4 11 6 ESE 1016,2 0 0,0
19.09.2018 04:00:00 15,1 13,3 4 2 12 6 ESE 1016,3 0 0,0
19.09.2018 03:00:00 14,7 13,1 9 5 13 7 SSE 1016,6 0 0,0
19.09.2018 02:00:00 15,2 13,2 7 4 15 8 SE 1016,4 0 0,0
19.09.2018 01:00:00 16,3 13,3 10 5 16 8 S 1016,6 0 0,0
19.09.2018 00:00:00 17,5 13,3 9 5 21 11 SW 1016,2 0 0,0
18.09.2018 23:00:00 18,1 13,4 13 7 24 13 W 1016,1 0 0,0
18.09.2018 22:00:00 19,1 13,4 17 9 40 22 W 1016,2 0 0,0
18.09.2018 21:00:00 20,4 13,7 23 13 34 18 W 1015,6 0 0,0
18.09.2018 20:00:00 21,3 13,4 18 10 35 19 WSW 1014,9 0 0,0
18.09.2018 19:00:00 23,0 13,0 23 12 45 24 WSW 1014,4 54 0,0
18.09.2018 18:00:00 24,4 12,5 30 16 42 23 WSW 1013,9 60 0,0
18.09.2018 17:00:00 25,2 13,2 26 14 44 24 SW 1013,4 60 0,0
18.09.2018 16:00:00 25,3 13,5 29 16 48 26 SW 1013,2 60 0,0
18.09.2018 15:00:00 24,9 13,6 29 16 45 24 SW 1012,9 60 0,0
18.09.2018 14:00:00 25,0 14,3 25 14 49 26 SW 1012,7 60 0,0
18.09.2018 13:00:00 24,2 14,3 26 14 40 22 SSW 1012,5 60 0,0
18.09.2018 12:00:00 23,2 14,5 22 12 35 19 SSW 1012,2 60 0,0
18.09.2018 11:00:00 22,3 13,6 20 11 29 16 SW 1011,9 60 0,0
18.09.2018 10:00:00 21,4 11,9 19 10 34 18 SW 1011,6 60 0,0
18.09.2018 09:00:00 20,2 11,2 21 11 34 18 SSW 1011,1 53 0,0
18.09.2018 08:00:00 16,7 11,0 11 6 16 9 SE 1010,3 0 0,0
18.09.2018 07:00:00 15,3 10,4 9 5 16 9 SE 1010,1 0 0,0
18.09.2018 06:00:00 14,9 9,7 12 7 16 9 ESE 1010,3 0 0,0
18.09.2018 05:00:00 14,7 9,1 11 6 16 8 ESE 1010,8 0 0,0
18.09.2018 04:00:00 14,8 8,8 10 5 14 8 ESE 1011,3 0 0,0
18.09.2018 03:00:00 15,2 8,8 11 6 15 8 ESE 1011,7 0 0,0
18.09.2018 02:00:00 14,8 8,9 7 4 12 6 ESE 1012,3 0 0,0
18.09.2018 01:00:00 15,0 9,1 7 4 10 6 ESE 1013,0 0 0,0
18.09.2018 00:00:00 14,7 9,5 8 4 10 5 ESE 1013,5 0 0,0
17.09.2018 23:00:00 14,8 10,1 4 2 6 3 ENE 1014,0 0 0,0
17.09.2018 22:00:00 14,6 9,5 4 2 6 4 NE 1014,4 0 0,0
17.09.2018 21:00:00 19,0 10,3 5 3 6 3 NE 1014,7 0 0,0
17.09.2018 20:00:00 21,6 9,3 4 2 14 7 E 1014,9 47 0,0
17.09.2018 19:00:00 24,6 9,2 7 4 16 9 SSE 1015,2 60 0,0
17.09.2018 18:00:00 25,4 8,0 11 6 22 12 S 1015,8 60 0,0
17.09.2018 17:00:00 25,5 8,6 10 6 22 12 S 1016,7 60 0,0
17.09.2018 16:00:00 25,3 9,5 10 6 23 13 S 1017,4 60 0,0
17.09.2018 15:00:00 24,5 9,0 15 8 24 13 SSE 1018,1 60 0,0
17.09.2018 14:00:00 24,0 9,9 14 8 23 13 SSW 1018,7 60 0,0
17.09.2018 13:00:00 22,4 10,9 13 7 21 11 SSW 1019,2 60 0,0
17.09.2018 12:00:00 20,9 11,4 11 6 16 8 SSW 1019,7 60 0,0
17.09.2018 11:00:00 18,9 12,1 10 5 14 8 S 1019,8 60 0,0
17.09.2018 10:00:00 16,5 12,3 9 5 11 6 S 1019,8 60 0,0
17.09.2018 09:00:00 12,0 11,2 0 0 6 3 N 1020,0 53 0,0
17.09.2018 08:00:00 8,4 8,4 4 2 5 3 E 1019,8 0 0,0
17.09.2018 07:00:00 9,7 9,6 4 2 6 3 ENE 1019,6 0 0,0
17.09.2018 06:00:00 9,3 9,1 6 3 8 4 SE 1019,1 0 0,0
17.09.2018 05:00:00 9,3 9,0 5 3 7 4 SE 1019,5 0 0,0
17.09.2018 04:00:00 9,4 9,0 4 2 6 3 SE 1019,5 0 0,0
17.09.2018 03:00:00 8,8 8,2 0 0 5 3 N 1019,8 0 0,0
17.09.2018 02:00:00 9,7 8,7 4 2 5 3 ESE 1020,1 0 0,0
17.09.2018 01:00:00 10,7 9,3 0 0 4 2 N 1020,1 0 0,0
17.09.2018 00:00:00 13,1 10,3 0 0 9 5 N 1019,9 0 0,0
16.09.2018 23:00:00 14,2 10,6 4 2 6 3 SSW 1020,0 0 0,0
16.09.2018 22:00:00 15,3 10,0 4 2 9 5 SSW 1020,3 0 0,0
16.09.2018 21:00:00 17,7 10,2 4 2 14 8 WSW 1020,3 0 0,0
16.09.2018 20:00:00 20,2 9,5 11 6 20 11 WSW 1020,0 48 0,0
16.09.2018 19:00:00 22,4 9,6 13 7 23 12 SSW 1019,5 60 0,0
16.09.2018 18:00:00 22,4 9,5 12 7 24 13 S 1019,6 60 0,0
16.09.2018 17:00:00 22,6 10,0 11 6 20 11 S 1020,0 39 0,0
16.09.2018 16:00:00 22,0 9,8 13 7 22 12 S 1020,4 11 0,0
16.09.2018 15:00:00 22,6 9,7 16 8 26 14 S 1021,0 60 0,0
16.09.2018 14:00:00 22,7 9,5 14 8 27 14 SW 1021,7 60 0,0
16.09.2018 13:00:00 21,9 10,1 18 10 27 15 SW 1022,3 60 0,0
16.09.2018 12:00:00 19,9 11,3 13 7 19 10 S 1022,7 60 0,0
16.09.2018 11:00:00 18,8 11,5 12 6 16 8 S 1022,7 60 0,0
16.09.2018 10:00:00 15,9 12,0 9 5 12 6 SSE 1022,7 60 0,0
16.09.2018 09:00:00 11,4 10,9 5 3 7 4 SE 1022,9 52 0,0
16.09.2018 08:00:00 9,2 9,2 4 2 7 4 SE 1022,7 1 0,0
16.09.2018 07:00:00 8,9 8,9 4 2 6 3 E 1022,9 0 0,0
16.09.2018 06:00:00 8,2 8,2 0 0 3 2 N 1022,8 0 0,0
16.09.2018 05:00:00 7,9 7,9 4 2 4 2 E 1022,9 0 0,0
16.09.2018 04:00:00 8,0 7,9 4 2 5 3 E 1023,3 0 0,0
16.09.2018 03:00:00 9,0 8,7 4 2 6 3 E 1023,9 0 0,0
16.09.2018 02:00:00 9,3 8,5 4 2 7 4 E 1024,6 0 0,0
16.09.2018 01:00:00 9,8 9,2 0 0 3 2 N 1025,2 0 0,0
16.09.2018 00:00:00 10,1 9,0 0 0 4 2 N 1025,2 0 0,0
15.09.2018 23:00:00 11,2 9,4 0 0 6 3 N 1025,2 0 0,0
15.09.2018 22:00:00 13,0 9,8 4 2 6 4 E 1025,4 0 0,0
15.09.2018 21:00:00 14,9 8,7 4 2 8 4 NW 1025,2 0 0,0
15.09.2018 20:00:00 16,8 8,4 7 4 13 7 W 1024,8 0 0,0
15.09.2018 19:00:00 18,5 10,4 9 5 17 9 WNW 1024,7 57 0,0
15.09.2018 18:00:00 19,0 11,5 11 6 18 10 WNW 1024,8 60 0,0
15.09.2018 17:00:00 19,6 11,9 13 7 22 12 WNW 1025,0 52 0,0
15.09.2018 16:00:00 20,0 11,1 14 8 25 13 WSW 1025,2 50 0,0
15.09.2018 15:00:00 18,9 11,2 13 7 25 13 WSW 1025,4 16 0,0
15.09.2018 14:00:00 18,8 10,9 14 8 23 12 W 1025,4 21 0,0
15.09.2018 13:00:00 17,3 11,0 14 7 23 12 W 1025,4 0 0,0
15.09.2018 12:00:00 18,0 10,5 13 7 22 12 WSW 1025,2 42 0,0
15.09.2018 11:00:00 17,5 12,0 12 6 20 11 WSW 1025,0 60 0,0
15.09.2018 10:00:00 15,9 12,1 11 6 19 11 WSW 1024,6 60 0,0

tt = Température de l'air
td = dewpoint
ff = Vitesse du vent
fx = gusts
dd = Direction du vent
ppp = reduced air pressure
sd = Ensoleillement
rr = Quantités de précipitations

stations d'obs. à proximité